createdAt,value
2018-08-24T05:40:19.033Z,19.30
2018-08-24T05:45:16.797Z,20.50
2018-08-24T05:50:14.504Z,19.40
2018-08-24T05:55:12.267Z,19.60
2018-08-24T06:00:09.989Z,19.80
2018-08-24T06:05:07.728Z,20.20
2018-08-24T06:10:05.472Z,20.20
2018-08-24T06:15:03.222Z,20.00
2018-08-24T06:20:00.981Z,19.90
2018-08-24T06:24:58.671Z,20.00
2018-08-24T06:30:07.508Z,20.00
2018-08-24T06:35:05.329Z,19.90
2018-08-24T06:40:15.933Z,19.90
2018-08-24T06:45:13.681Z,20.00
2018-08-24T06:50:11.376Z,20.20
2018-08-24T06:55:09.092Z,20.30
2018-08-24T07:00:07.788Z,20.50
2018-08-24T07:05:05.864Z,20.60
2018-08-24T07:15:42.088Z,20.90
2018-08-24T07:20:39.767Z,20.90
2018-08-24T07:25:37.473Z,20.90
2018-08-24T07:30:35.176Z,21.00
2018-08-24T07:35:32.884Z,21.10
2018-08-24T07:40:30.628Z,21.10
2018-08-24T07:45:28.961Z,21.30
2018-08-24T07:50:26.652Z,21.60
2018-08-24T07:55:24.292Z,21.70
2018-08-24T08:00:21.956Z,21.80
2018-08-24T08:05:19.681Z,22.00
2018-08-24T08:10:17.549Z,22.10
2018-08-24T08:15:15.299Z,22.20
2018-08-24T08:20:12.952Z,22.30
2018-08-24T08:25:10.860Z,22.20
2018-08-24T08:30:08.736Z,22.10
2018-08-24T08:35:06.617Z,22.10
2018-08-24T08:40:04.489Z,22.10
2018-08-24T08:45:02.405Z,22.20
2018-08-24T08:50:00.343Z,22.60
2018-08-24T08:54:58.344Z,22.90
2018-08-24T08:59:56.320Z,22.90
2018-08-24T09:04:54.200Z,23.00
2018-08-24T09:09:52.220Z,22.90
2018-08-24T09:14:50.106Z,22.60
2018-08-24T09:19:53.623Z,22.50
2018-08-24T09:24:56.904Z,22.30
2018-08-24T09:29:57.617Z,22.30
2018-08-24T09:34:55.468Z,22.30
2018-08-24T09:39:53.423Z,22.40
2018-08-24T09:44:51.348Z,22.70
2018-08-24T09:49:49.280Z,22.90
2018-08-24T09:54:47.144Z,22.90
2018-08-24T09:59:45.072Z,22.80
2018-08-24T10:04:48.750Z,21.90
2018-08-24T10:09:46.717Z,23.30
2018-08-24T10:14:44.713Z,21.20
2018-08-24T10:19:42.968Z,22.60
2018-08-24T10:24:40.928Z,22.70
2018-08-24T10:29:39.126Z,22.80
2018-08-24T10:34:37.040Z,22.90
2018-08-24T10:39:36.544Z,22.90
2018-08-24T10:44:34.313Z,22.90
2018-08-24T10:49:32.557Z,22.80
2018-08-24T10:54:30.420Z,22.70
2018-08-24T10:59:28.420Z,22.50
2018-08-24T11:04:26.352Z,22.30
2018-08-24T11:09:24.299Z,22.40
2018-08-24T11:14:22.159Z,22.00
2018-08-24T11:19:19.936Z,21.00
2018-08-24T11:24:19.614Z,19.30
2018-08-24T11:29:18.784Z,19.70
2018-08-24T11:34:17.550Z,19.80
2018-08-24T11:39:15.453Z,19.80
2018-08-24T11:44:13.440Z,19.70
2018-08-24T11:49:11.421Z,19.30
2018-08-24T11:54:14.934Z,18.10
2018-08-24T11:59:12.778Z,19.10
2018-08-24T12:04:10.690Z,19.10
2018-08-24T12:09:09.405Z,19.20
2018-08-24T12:14:07.400Z,19.50
2018-08-24T12:19:06.390Z,19.80
2018-08-24T12:24:04.301Z,19.70
2018-08-24T12:29:03.461Z,19.60
2018-08-24T12:34:01.365Z,19.60
2018-08-24T12:38:59.312Z,19.60
2018-08-24T12:43:57.053Z,19.30
2018-08-24T12:48:54.721Z,19.10
2018-08-24T12:53:52.466Z,18.90
2018-08-24T12:58:51.097Z,18.80
2018-08-24T13:03:49.284Z,18.50
2018-08-24T13:08:47.147Z,18.40
2018-08-24T13:13:44.743Z,18.30
2018-08-24T13:18:42.506Z,18.20
2018-08-24T13:23:40.176Z,18.10
2018-08-24T13:28:37.837Z,18.00
2018-08-24T13:33:35.521Z,17.80
2018-08-24T13:38:33.196Z,17.80
2018-08-24T13:43:30.873Z,17.70
2018-08-24T13:48:28.552Z,17.60
2018-08-24T13:53:26.298Z,17.60
2018-08-24T13:58:23.964Z,17.60
2018-08-24T14:03:21.640Z,17.50
2018-08-24T14:08:19.323Z,17.50
2018-08-24T14:13:17.027Z,17.60
2018-08-24T14:18:17.718Z,17.60
2018-08-24T14:23:15.402Z,17.50
2018-08-24T14:28:13.117Z,17.50
2018-08-24T14:33:10.823Z,17.50
2018-08-24T14:38:08.629Z,17.50
2018-08-24T14:43:06.293Z,17.20
2018-08-24T14:48:04.036Z,17.10
2018-08-24T14:53:01.884Z,17.10
2018-08-24T14:57:59.545Z,16.90
2018-08-24T15:02:57.184Z,16.70
2018-08-24T15:07:54.849Z,16.60
2018-08-24T15:12:52.524Z,16.50
2018-08-24T15:17:50.192Z,16.50
2018-08-24T15:22:47.869Z,16.50
2018-08-24T15:27:45.513Z,16.60
2018-08-24T15:32:43.189Z,16.50
2018-08-24T15:37:40.875Z,16.60
2018-08-24T15:42:38.561Z,16.70
2018-08-24T15:47:36.236Z,16.80
2018-08-24T15:52:33.868Z,16.90
2018-08-24T15:57:31.560Z,17.00
2018-08-24T16:02:29.224Z,17.10
2018-08-24T16:07:26.957Z,17.20
2018-08-24T16:12:24.738Z,17.30
2018-08-24T16:17:22.321Z,17.50
2018-08-24T16:22:20.013Z,17.60
2018-08-24T16:27:17.780Z,17.70
2018-08-24T16:32:15.497Z,17.70
2018-08-24T16:37:13.229Z,17.70
2018-08-24T16:42:10.922Z,17.80
2018-08-24T16:47:08.605Z,17.90
2018-08-24T16:52:07.517Z,17.90
2018-08-24T16:57:05.882Z,19.40
2018-08-24T17:02:03.721Z,17.80
2018-08-24T17:07:01.412Z,17.70
2018-08-24T17:11:59.092Z,17.60
2018-08-24T17:16:56.782Z,17.50
2018-08-24T17:21:54.588Z,17.50
2018-08-24T17:26:52.278Z,17.40
2018-08-24T17:31:49.942Z,17.30
2018-08-24T17:36:47.644Z,17.20
2018-08-24T17:41:45.393Z,17.10
2018-08-24T17:46:43.032Z,17.00
2018-08-24T17:51:40.733Z,16.80
2018-08-24T17:56:38.402Z,16.60
2018-08-24T18:01:36.089Z,16.20
2018-08-24T18:06:33.777Z,15.90
2018-08-24T18:11:32.405Z,15.80
2018-08-24T18:16:30.089Z,15.80
2018-08-24T18:21:27.749Z,15.80
